createdAt,value
2022-11-28T00:02:20.492Z,101179.25
2022-11-28T00:04:51.063Z,101186.59
2022-11-28T00:07:17.768Z,101182.19
2022-11-28T00:09:44.272Z,101166.41
2022-11-28T00:12:10.670Z,101160.28
2022-11-28T00:14:37.087Z,101165.84
2022-11-28T00:17:03.496Z,101160.72
2022-11-28T00:19:29.967Z,101163.13
2022-11-28T00:21:56.414Z,101161.44
2022-11-28T00:24:22.818Z,101154.94
2022-11-28T00:26:49.468Z,101144.50
2022-11-28T00:29:15.845Z,101157.00
2022-11-28T00:31:43.663Z,101163.13
2022-11-28T00:34:13.073Z,101151.75
2022-11-28T00:36:39.648Z,101159.50
2022-11-28T00:39:06.425Z,101147.25
2022-11-28T00:41:35.801Z,101146.78
2022-11-28T00:44:02.619Z,101145.97
2022-11-28T00:46:29.465Z,101151.66
2022-11-28T00:48:57.940Z,101158.59
2022-11-28T00:51:26.889Z,101157.34
2022-11-28T00:53:55.744Z,101168.69
2022-11-28T00:56:24.629Z,101163.00
2022-11-28T00:58:51.822Z,101156.88
2022-11-28T01:01:21.892Z,101150.41
2022-11-28T01:03:49.392Z,101141.91
2022-11-28T01:06:31.193Z,101135.53
2022-11-28T01:09:00.033Z,101124.09
2022-11-28T01:11:27.106Z,101127.00
2022-11-28T01:13:55.222Z,101128.97
2022-11-28T01:16:22.032Z,101128.97
2022-11-28T01:18:48.480Z,101113.19
2022-11-28T01:21:15.541Z,101102.38
2022-11-28T01:23:41.989Z,101113.19
2022-11-28T01:26:11.669Z,101104.69
2022-11-28T01:28:38.103Z,101099.00
2022-11-28T01:31:06.724Z,101088.56
2022-11-28T01:33:33.792Z,101093.34
2022-11-28T01:36:00.696Z,101100.69
2022-11-28T01:38:27.888Z,101101.84
2022-11-28T01:40:55.500Z,101083.56
2022-11-28T01:43:22.801Z,101061.06
2022-11-28T01:45:49.532Z,101068.69
2022-11-28T01:48:24.800Z,101083.56
2022-11-28T01:50:55.912Z,101069.03
2022-11-28T01:53:23.529Z,101072.66
2022-11-28T01:56:06.977Z,101065.84
2022-11-28T01:58:36.487Z,101059.28
2022-11-28T02:01:04.047Z,101032.25
2022-11-28T02:03:35.860Z,101026.91
2022-11-28T02:06:02.859Z,101023.28
2022-11-28T02:08:33.288Z,101027.38
2022-11-28T02:11:29.487Z,101017.63
2022-11-28T02:14:05.608Z,101022.03
2022-11-28T02:16:48.210Z,101006.28
2022-11-28T02:19:47.169Z,101010.00
2022-11-28T02:22:24.549Z,101003.88
2022-11-28T02:25:21.132Z,101003.50
2022-11-28T02:28:11.385Z,101002.72
2022-11-28T02:31:18.823Z,100996.72
2022-11-28T02:33:51.582Z,100990.13
2022-11-28T02:36:22.486Z,100976.84
2022-11-28T02:39:28.436Z,100964.72
2022-11-28T02:42:08.779Z,100953.84
2022-11-28T02:44:47.434Z,100955.41
2022-11-28T02:47:29.892Z,100966.75
2022-11-28T02:49:56.343Z,100961.06
2022-11-28T02:52:29.533Z,100970.03
2022-11-28T02:54:57.043Z,100953.84
2022-11-28T02:57:34.488Z,100963.56
2022-11-28T03:00:00.972Z,100963.13
2022-11-28T03:02:33.137Z,100953.00
2022-11-28T03:05:19.603Z,100947.78
2022-11-28T03:08:10.073Z,100943.25
2022-11-28T03:11:05.820Z,100945.31
2022-11-28T03:13:50.194Z,100947.78
2022-11-28T03:16:39.217Z,100936.22
2022-11-28T03:19:16.457Z,100939.84
2022-11-28T03:22:27.158Z,100932.56
2022-11-28T03:25:08.232Z,100934.19
2022-11-28T03:27:42.401Z,100922.81
2022-11-28T03:30:13.475Z,100917.50
2022-11-28T03:32:42.225Z,100898.44
2022-11-28T03:35:19.017Z,100906.97
2022-11-28T03:37:51.153Z,100908.97
2022-11-28T03:40:25.164Z,100911.81
2022-11-28T03:42:57.386Z,100904.66
2022-11-28T03:45:26.645Z,100900.59
2022-11-28T03:48:01.313Z,100904.22
2022-11-28T03:50:35.920Z,100911.47
2022-11-28T03:53:21.970Z,100915.56
2022-11-28T03:55:55.159Z,100923.63
2022-11-28T03:58:35.356Z,100937.00
2022-11-28T04:01:28.822Z,100945.53
2022-11-28T04:04:08.560Z,100938.63
2022-11-28T04:06:54.698Z,100933.38
2022-11-28T04:09:43.287Z,100926.13
2022-11-28T04:12:21.847Z,100934.19
2022-11-28T04:14:55.699Z,100931.78
2022-11-28T04:18:13.099Z,100936.69
2022-11-28T04:20:46.676Z,100922.81
2022-11-28T04:23:16.863Z,100926.91
2022-11-28T04:25:52.577Z,100934.19
2022-11-28T04:28:24.762Z,100927.72
2022-11-28T04:30:53.483Z,100922.81
2022-11-28T04:33:23.807Z,100915.09
2022-11-28T04:35:53.387Z,100910.25
2022-11-28T04:38:23.027Z,100901.75
2022-11-28T04:40:53.790Z,100904.22
2022-11-28T04:43:28.977Z,100894.59
2022-11-28T04:46:05.295Z,100883.13
2022-11-28T04:48:34.509Z,100882.34
2022-11-28T04:51:23.244Z,100884.34
2022-11-28T04:54:23.400Z,100883.25
2022-11-28T04:56:55.653Z,100874.28
2022-11-28T04:59:24.896Z,100870.63
2022-11-28T05:01:51.745Z,100865.44
2022-11-28T05:04:19.062Z,100881.53
2022-11-28T05:06:45.656Z,100888.91
2022-11-28T05:09:13.079Z,100903.44
2022-11-28T05:11:40.179Z,100908.31
2022-11-28T05:14:06.817Z,100905.47
2022-11-28T05:16:33.415Z,100904.22
2022-11-28T05:19:00.101Z,100927.34
2022-11-28T05:21:26.659Z,100945.19
2022-11-28T05:23:53.250Z,100956.53
2022-11-28T05:26:21.293Z,100972.75
2022-11-28T05:28:51.066Z,100956.22
2022-11-28T05:31:21.486Z,100964.72
2022-11-28T05:33:48.067Z,100947.69
2022-11-28T05:36:16.736Z,100954.16
2022-11-28T05:38:44.203Z,100964.34
2022-11-28T05:41:19.440Z,100954.59
2022-11-28T05:43:46.103Z,100950.53
2022-11-28T05:46:12.706Z,100951.75
2022-11-28T05:48:39.213Z,100950.53
2022-11-28T05:51:06.686Z,100938.81
2022-11-28T05:53:33.760Z,100939.19
2022-11-28T05:56:05.761Z,100926.25
2022-11-28T05:58:32.261Z,100916.94
2022-11-28T06:00:58.785Z,100919.78
2022-11-28T06:03:25.300Z,100918.97
2022-11-28T06:05:51.895Z,100920.56
2022-11-28T06:08:18.426Z,100908.44
2022-11-28T06:10:45.017Z,100902.75
2022-11-28T06:13:11.519Z,100906.06
2022-11-28T06:15:42.265Z,100908.06
2022-11-28T06:18:09.230Z,100906.06
2022-11-28T06:20:35.863Z,100906.06
2022-11-28T06:23:02.392Z,100905.25
2022-11-28T06:25:29.293Z,100908.53
2022-11-28T06:27:55.883Z,100910.13
2022-11-28T06:30:22.429Z,100899.69
2022-11-28T06:32:49.053Z,100902.84
2022-11-28T06:35:15.690Z,100892.31
2022-11-28T06:37:42.431Z,100906.13
2022-11-28T06:40:09.061Z,100914.19
2022-11-28T06:42:36.666Z,100911.03
2022-11-28T06:45:04.781Z,100907.75
2022-11-28T06:47:31.783Z,100894.00
2022-11-28T06:49:58.459Z,100894.00
2022-11-28T06:52:25.078Z,100900.47
2022-11-28T06:54:51.644Z,100898.91
2022-11-28T06:57:18.329Z,100903.75
2022-11-28T06:59:45.063Z,100908.66
2022-11-28T07:02:11.799Z,100920.00
2022-11-28T07:04:38.616Z,100909.44
2022-11-28T07:07:05.224Z,100905.94
2022-11-28T07:09:31.731Z,100907.03
2022-11-28T07:11:58.262Z,100912.72
2022-11-28T07:14:24.918Z,100916.03
2022-11-28T07:16:51.571Z,100910.34
2022-11-28T07:19:22.780Z,100916.03
2022-11-28T07:21:50.210Z,100918.06
2022-11-28T07:24:19.888Z,100921.69
2022-11-28T07:26:46.918Z,100927.38
2022-11-28T07:29:15.406Z,100916.94
2022-11-28T07:31:42.101Z,100928.28
2022-11-28T07:34:10.546Z,100918.06
2022-11-28T07:36:37.768Z,100917.25
2022-11-28T07:39:06.672Z,100916.94
2022-11-28T07:41:33.171Z,100918.06
2022-11-28T07:44:01.656Z,100922.94
2022-11-28T07:46:30.416Z,100925.78
2022-11-28T07:48:57.297Z,100913.66
2022-11-28T07:51:30.644Z,100924.19
2022-11-28T07:53:57.515Z,100921.00
2022-11-28T07:56:35.033Z,100919.31
2022-11-28T07:59:06.496Z,100919.78
2022-11-28T08:01:35.954Z,100908.44
2022-11-28T08:04:08.324Z,100912.84
2022-11-28T08:06:44.233Z,100917.72
2022-11-28T08:09:14.011Z,100922.16
2022-11-28T08:11:41.103Z,100918.50
2022-11-28T08:14:07.685Z,100922.16
2022-11-28T08:16:34.573Z,100917.72
2022-11-28T08:19:02.241Z,100928.59
2022-11-28T08:21:31.258Z,100927.38
2022-11-28T08:24:02.192Z,100928.16
2022-11-28T08:26:30.948Z,100927.38
2022-11-28T08:28:59.213Z,100927.38
2022-11-28T08:31:31.320Z,100934.28
2022-11-28T08:34:00.107Z,100926.09
2022-11-28T08:36:29.124Z,100928.94
2022-11-28T08:39:22.240Z,100931.34
2022-11-28T08:41:42.978Z,100924.53
2022-11-28T08:44:09.693Z,100932.13
2022-11-28T08:46:36.686Z,100938.59
2022-11-28T08:49:04.702Z,100949.13
2022-11-28T08:51:31.768Z,100952.34
2022-11-28T08:53:59.798Z,100962.41
2022-11-28T08:56:27.350Z,100953.91
2022-11-28T08:58:54.589Z,100959.13
2022-11-28T09:01:26.075Z,100941.31
2022-11-28T09:03:53.920Z,100946.53
2022-11-28T09:06:21.698Z,100953.44
2022-11-28T09:08:50.179Z,100951.75
2022-11-28T09:11:18.452Z,100948.94
2022-11-28T09:13:45.298Z,100947.31
2022-11-28T09:16:13.136Z,100949.25
2022-11-28T09:18:39.899Z,100952.88
2022-11-28T09:21:12.039Z,100943.13
2022-11-28T09:23:41.055Z,100951.19
2022-11-28T09:26:12.324Z,100949.97
2022-11-28T09:28:38.810Z,100947.13
2022-11-28T09:31:07.039Z,100949.50
2022-11-28T09:33:33.985Z,100955.97
2022-11-28T09:36:08.334Z,100946.22
2022-11-28T09:38:36.215Z,100945.78
2022-11-28T09:41:04.379Z,100941.34
2022-11-28T09:43:42.645Z,100944.50
2022-11-28T09:46:16.544Z,100943.25
2022-11-28T09:48:50.948Z,100948.25
2022-11-28T09:51:43.813Z,100948.59
2022-11-28T09:54:18.678Z,100951.00
2022-11-28T09:56:48.597Z,100942.94
2022-11-28T09:59:26.079Z,100951.78
2022-11-28T10:01:58.540Z,100950.06
2022-11-28T10:04:41.062Z,100951.66
2022-11-28T10:07:22.808Z,100934.63
2022-11-28T10:10:19.552Z,100941.91
2022-11-28T10:12:54.390Z,100949.16
2022-11-28T10:15:38.330Z,100949.16
2022-11-28T10:18:34.988Z,100948.38
2022-11-28T10:21:09.920Z,100952.34
2022-11-28T10:23:44.619Z,100949.50
2022-11-28T10:26:28.982Z,100947.47
2022-11-28T10:28:56.801Z,100941.09
2022-11-28T10:31:31.901Z,100950.75
2022-11-28T10:34:19.837Z,100946.78
2022-11-28T10:37:11.448Z,100941.00
2022-11-28T10:39:43.635Z,100938.16
2022-11-28T10:42:20.110Z,100940.09
2022-11-28T10:44:58.110Z,100933.16
2022-11-28T10:51:15.929Z,100931.13
2022-11-28T10:54:05.813Z,100936.81
2022-11-28T10:56:50.993Z,100938.50
2022-11-28T10:59:36.485Z,100936.00
2022-11-28T11:02:41.717Z,100936.81
2022-11-28T11:05:19.742Z,100934.31
2022-11-28T11:07:52.671Z,100940.75
2022-11-28T11:10:49.038Z,100932.69
2022-11-28T11:13:24.645Z,100929.41
2022-11-28T11:16:11.549Z,100926.56
2022-11-28T11:18:52.844Z,100931.00
2022-11-28T11:21:25.795Z,100927.72
2022-11-28T11:24:11.497Z,100933.84
2022-11-28T11:26:41.721Z,100930.88
2022-11-28T11:29:29.317Z,100923.63
2022-11-28T11:31:56.161Z,100931.22
2022-11-28T11:34:24.200Z,100926.34
2022-11-28T11:36:51.519Z,100925.91
2022-11-28T11:39:23.576Z,100922.69
2022-11-28T11:42:10.194Z,100912.94
2022-11-28T11:44:37.505Z,100922.63
2022-11-28T11:47:09.326Z,100922.63
2022-11-28T11:49:41.882Z,100911.25
2022-11-28T11:52:12.747Z,100918.50
2022-11-28T11:54:57.311Z,100912.03
2022-11-28T11:57:34.229Z,100904.31
2022-11-28T12:00:15.092Z,100907.94
2022-11-28T12:02:46.772Z,100901.81
2022-11-28T12:05:23.782Z,100898.97
2022-11-28T12:08:05.151Z,100919.19
2022-11-28T12:10:43.574Z,100911.13
2022-11-28T12:13:20.148Z,100922.50
2022-11-28T12:16:04.467Z,100911.91
2022-11-28T12:18:36.694Z,100908.41
2022-11-28T12:21:19.999Z,100907.94
2022-11-28T12:23:55.409Z,100916.00
2022-11-28T12:26:39.985Z,100918.84
2022-11-28T12:29:37.407Z,100905.47
2022-11-28T12:32:31.496Z,100911.13
2022-11-28T12:35:00.938Z,100916.34
2022-11-28T12:38:14.810Z,100908.28
2022-11-28T12:41:04.031Z,100910.31
2022-11-28T12:43:47.360Z,100898.97
2022-11-28T12:46:32.589Z,100898.06
2022-11-28T12:49:26.877Z,100907.84
2022-11-28T12:52:21.310Z,100908.63
2022-11-28T12:55:07.280Z,100908.16
2022-11-28T12:57:39.048Z,100906.56
2022-11-28T13:00:20.411Z,100906.25
2022-11-28T13:03:04.061Z,100908.63
2022-11-28T13:05:35.788Z,100904.53
2022-11-28T13:08:28.215Z,100911.00
2022-11-28T13:11:24.072Z,100910.69
2022-11-28T13:14:19.656Z,100907.84
2022-11-28T13:16:55.101Z,100899.31
2022-11-28T13:19:39.828Z,100902.94
2022-11-28T13:22:14.827Z,100902.94
2022-11-28T13:24:50.285Z,100909.41
2022-11-28T13:27:33.174Z,100894.88
2022-11-28T13:30:22.520Z,100898.19
2022-11-28T13:33:16.732Z,100908.63
2022-11-28T13:35:46.102Z,100912.69
2022-11-28T13:38:39.778Z,100912.25
2022-11-28T13:41:43.842Z,100911.13
2022-11-28T13:44:20.917Z,100906.25
2022-11-28T13:46:47.678Z,100906.25
2022-11-28T13:49:24.237Z,100900.56
2022-11-28T13:52:31.651Z,100910.31
2022-11-28T13:54:58.166Z,100911.91
2022-11-28T13:57:36.252Z,100913.16
2022-11-28T14:00:18.890Z,100922.94
2022-11-28T14:02:50.541Z,100920.09
2022-11-28T14:05:33.067Z,100920.09
2022-11-28T14:08:00.978Z,100923.72
2022-11-28T14:10:28.132Z,100918.50
2022-11-28T14:13:23.185Z,100917.72
2022-11-28T14:16:09.048Z,100917.47
2022-11-28T14:19:00.320Z,100919.53
2022-11-28T14:21:42.581Z,100926.00
2022-11-28T14:24:14.382Z,100917.47
2022-11-28T14:26:43.040Z,100929.19
2022-11-28T14:29:26.466Z,100926.00
2022-11-28T14:32:28.575Z,100918.75
2022-11-28T14:34:46.796Z,100914.66
2022-11-28T14:37:19.707Z,100920.31
2022-11-28T14:39:48.854Z,100915.91
2022-11-28T14:42:51.885Z,100913.41
2022-11-28T14:45:32.736Z,100917.16
2022-11-28T14:48:29.111Z,100920.44
2022-11-28T14:51:01.264Z,100923.63
2022-11-28T14:53:36.259Z,100915.56
2022-11-28T14:56:29.622Z,100915.56
2022-11-28T14:59:00.909Z,100905.03
2022-11-28T15:01:37.815Z,100912.25
2022-11-28T15:04:19.631Z,100907.03
2022-11-28T15:06:50.322Z,100917.16
2022-11-28T15:09:35.788Z,100916.81
2022-11-28T15:12:28.938Z,100929.75
2022-11-28T15:14:58.122Z,100927.72
2022-11-28T15:17:33.283Z,100946.78
2022-11-28T15:20:19.201Z,100938.72
2022-11-28T15:22:46.610Z,100938.25
2022-11-28T15:25:25.432Z,100933.03
2022-11-28T15:27:53.716Z,100933.50
2022-11-28T15:30:23.878Z,100936.69
2022-11-28T15:32:58.122Z,100935.09
2022-11-28T15:35:25.376Z,100931.91
2022-11-28T15:37:58.217Z,100939.19
2022-11-28T15:40:29.756Z,100939.19
2022-11-28T15:42:57.018Z,100937.59
2022-11-28T15:45:37.798Z,100935.22
2022-11-28T15:48:05.826Z,100939.66
2022-11-28T15:50:34.320Z,100951.00
2022-11-28T15:53:03.551Z,100946.56
2022-11-28T15:55:33.555Z,100948.59
2022-11-28T15:58:31.153Z,100955.53
2022-11-28T16:01:19.609Z,100961.97
2022-11-28T16:03:58.958Z,100958.81
2022-11-28T16:06:30.078Z,100960.41
2022-11-28T16:09:01.285Z,100956.75
2022-11-28T16:11:30.766Z,100955.66
2022-11-28T16:13:59.775Z,100957.22
2022-11-28T16:16:30.307Z,100952.34
2022-11-28T16:19:00.138Z,100955.97
2022-11-28T16:21:34.494Z,100958.03
2022-11-28T16:24:01.970Z,100956.44
2022-11-28T16:26:36.148Z,100956.44
2022-11-28T16:29:13.445Z,100953.25
2022-11-28T16:31:40.768Z,100956.44
2022-11-28T16:34:13.708Z,100952.44
2022-11-28T16:36:42.213Z,100953.25
2022-11-28T16:39:14.688Z,100956.09
2022-11-28T16:41:50.120Z,100965.41
2022-11-28T16:44:19.897Z,100954.50
2022-11-28T16:46:57.907Z,100957.00
2022-11-28T16:49:35.276Z,100952.91
2022-11-28T16:52:27.271Z,100959.84
2022-11-28T16:54:58.463Z,100955.72
2022-11-28T16:57:44.189Z,100951.31
2022-11-28T17:00:11.124Z,100955.41
2022-11-28T17:02:38.708Z,100955.41
2022-11-28T17:05:05.590Z,100949.72
2022-11-28T17:07:32.915Z,100955.84
2022-11-28T17:09:59.522Z,100962.34
2022-11-28T17:12:34.094Z,100958.25
2022-11-28T17:15:00.712Z,100964.34
2022-11-28T17:17:27.561Z,100976.84
2022-11-28T17:19:54.161Z,100982.97
2022-11-28T17:22:26.844Z,100968.00
2022-11-28T17:24:59.157Z,100976.97
2022-11-28T17:27:25.706Z,100980.59
2022-11-28T17:29:52.213Z,100983.44
2022-11-28T17:32:18.875Z,100989.09
2022-11-28T17:34:48.533Z,100988.78
2022-11-28T17:37:16.405Z,100989.56
2022-11-28T17:40:02.866Z,100993.19
2022-11-28T17:42:29.467Z,100992.41
2022-11-28T17:44:56.065Z,100991.63
2022-11-28T17:47:23.888Z,100991.63
2022-11-28T17:49:50.550Z,100988.78
2022-11-28T17:52:17.341Z,100986.84
2022-11-28T17:54:43.961Z,100989.22
2022-11-28T17:57:10.601Z,100972.22
2022-11-28T17:59:38.482Z,100978.66
2022-11-28T18:02:05.642Z,100982.75
2022-11-28T18:04:34.594Z,100986.84
2022-11-28T18:07:01.647Z,100981.16
2022-11-28T18:09:29.203Z,100984.00
2022-11-28T18:11:55.740Z,100985.25
2022-11-28T18:14:22.668Z,100981.16
2022-11-28T18:16:52.547Z,100983.63
2022-11-28T18:19:19.460Z,100984.09
2022-11-28T18:21:47.090Z,100982.84
2022-11-28T18:24:13.788Z,100983.31
2022-11-28T18:26:41.114Z,100987.75
2022-11-28T18:29:07.767Z,100980.47
2022-11-28T18:31:34.972Z,100994.19
2022-11-28T18:34:07.081Z,100991.81
2022-11-28T18:36:35.795Z,100982.53
2022-11-28T18:39:07.183Z,100982.53
2022-11-28T18:41:33.902Z,100985.34
2022-11-28T18:44:04.461Z,100994.66
2022-11-28T18:46:34.089Z,100996.38
2022-11-28T18:49:01.564Z,100997.16
2022-11-28T18:51:33.772Z,101001.59
2022-11-28T18:54:03.619Z,101009.72
2022-11-28T18:56:31.412Z,101005.66
2022-11-28T18:58:58.387Z,100999.19
2022-11-28T19:01:30.559Z,101005.66
2022-11-28T19:04:03.477Z,101005.66
2022-11-28T19:06:31.581Z,101006.44
2022-11-28T19:09:00.510Z,101005.31
2022-11-28T19:11:28.697Z,101012.13
2022-11-28T19:13:56.644Z,101014.97
2022-11-28T19:16:26.711Z,101009.72
2022-11-28T19:18:55.423Z,101001.66
2022-11-28T19:21:25.727Z,101011.34
2022-11-28T19:23:55.033Z,101005.66
2022-11-28T19:26:24.521Z,101012.56
2022-11-28T19:28:51.630Z,101015.06
2022-11-28T19:31:28.124Z,101013.84
2022-11-28T19:34:00.830Z,101009.72
2022-11-28T19:36:32.779Z,101012.56
2022-11-28T19:39:00.517Z,101006.66
2022-11-28T19:41:28.440Z,101012.22
2022-11-28T19:43:56.654Z,101016.31
2022-11-28T19:46:23.755Z,101012.22
2022-11-28T19:48:51.652Z,101016.31
2022-11-28T19:51:20.169Z,101023.56
2022-11-28T19:53:47.049Z,101007.47
2022-11-28T19:56:17.024Z,101015.84
2022-11-28T19:58:44.732Z,101019.94
2022-11-28T20:01:15.381Z,101021.19
2022-11-28T20:03:42.921Z,101016.31
2022-11-28T20:06:12.373Z,101027.19
2022-11-28T20:08:40.017Z,101026.06
2022-11-28T20:11:22.099Z,101032.53
2022-11-28T20:13:49.608Z,101036.97
2022-11-28T20:16:18.283Z,101030.47
2022-11-28T20:18:45.345Z,101032.19
2022-11-28T20:21:18.591Z,101037.41
2022-11-28T20:23:49.855Z,101043.44
2022-11-28T20:26:18.836Z,101040.59
2022-11-28T20:28:47.285Z,101034.59
2022-11-28T20:31:33.846Z,101049.56
2022-11-28T20:34:01.479Z,101046.28
2022-11-28T20:36:30.511Z,101044.66
2022-11-28T20:38:58.627Z,101047.94
2022-11-28T20:41:26.000Z,101035.81
2022-11-28T20:43:53.218Z,101045.94
2022-11-28T20:46:27.295Z,101050.34
2022-11-28T20:48:54.283Z,101045.69
2022-11-28T20:51:24.811Z,101046.50
2022-11-28T20:53:51.805Z,101048.06
2022-11-28T20:56:21.269Z,101056.13
2022-11-28T20:58:48.487Z,101046.00
2022-11-28T21:01:18.376Z,101040.34
2022-11-28T21:03:45.078Z,101045.56
2022-11-28T21:06:12.323Z,101050.13
2022-11-28T21:08:38.945Z,101044.00
2022-11-28T21:11:17.881Z,101045.56
2022-11-28T21:13:57.977Z,101051.69
2022-11-28T21:16:31.179Z,101043.66
2022-11-28T21:19:01.727Z,101039.56
2022-11-28T21:21:31.003Z,101040.81
2022-11-28T21:24:00.766Z,101046.50
2022-11-28T21:26:30.538Z,101053.72
2022-11-28T21:29:01.756Z,101048.97
2022-11-28T21:31:31.870Z,101046.50
2022-11-28T21:33:59.242Z,101048.50
2022-11-28T21:36:28.514Z,101048.97
2022-11-28T21:38:57.762Z,101046.50
2022-11-28T21:41:28.935Z,101045.34
2022-11-28T21:43:56.629Z,101055.44
2022-11-28T21:46:23.864Z,101051.78
2022-11-28T21:48:50.711Z,101051.78
2022-11-28T21:51:22.812Z,101054.63
2022-11-28T21:53:49.608Z,101057.47
2022-11-28T21:56:39.478Z,101053.06
2022-11-28T21:59:16.625Z,101058.72
2022-11-28T22:01:56.509Z,101050.75
2022-11-28T22:04:44.848Z,101035.00
2022-11-28T22:07:12.244Z,101053.06
2022-11-28T22:09:38.765Z,101057.13
2022-11-28T22:12:05.726Z,101051.47
2022-11-28T22:14:36.771Z,101051.13
2022-11-28T22:17:03.533Z,101057.13
2022-11-28T22:19:30.127Z,101053.94
2022-11-28T22:21:57.227Z,101055.53
2022-11-28T22:24:24.201Z,101053.94
2022-11-28T22:26:51.041Z,101056.41
2022-11-28T22:29:18.155Z,101056.78
2022-11-28T22:31:45.643Z,101065.28
2022-11-28T22:34:12.359Z,101054.75
2022-11-28T22:36:39.056Z,101055.53
2022-11-28T22:39:06.240Z,101053.94
2022-11-28T22:41:33.264Z,101053.94
2022-11-28T22:44:01.841Z,101062.47
2022-11-28T22:46:31.145Z,101071.75
2022-11-28T22:49:00.620Z,101064.94
2022-11-28T22:51:28.453Z,101066.53
2022-11-28T22:54:01.395Z,101068.56
2022-11-28T22:56:29.647Z,101072.75
2022-11-28T22:58:57.909Z,101063.47
2022-11-28T23:01:27.639Z,101062.66
2022-11-28T23:03:55.942Z,101072.75
2022-11-28T23:06:29.085Z,101064.59
2022-11-28T23:08:57.455Z,101065.03
2022-11-28T23:11:28.101Z,101068.66
2022-11-28T23:13:55.149Z,101070.25
2022-11-28T23:16:23.876Z,101079.56
2022-11-28T23:18:53.289Z,101074.31
2022-11-28T23:21:21.227Z,101075.59
2022-11-28T23:23:48.510Z,101086.03
2022-11-28T23:26:21.398Z,101074.31
2022-11-28T23:28:48.096Z,101088.06
2022-11-28T23:31:17.020Z,101098.63
2022-11-28T23:33:44.234Z,101084.44
2022-11-28T23:36:28.389Z,101089.31
2022-11-28T23:38:57.394Z,101094.19
2022-11-28T23:41:24.659Z,101086.47
2022-11-28T23:43:51.380Z,101100.22
2022-11-28T23:46:19.100Z,101091.72
2022-11-28T23:48:46.400Z,101092.94
2022-11-28T23:51:15.102Z,101095.78
2022-11-28T23:53:42.767Z,101092.50
2022-11-28T23:56:15.636Z,101093.72
2022-11-28T23:58:42.948Z,101094.53
